sensor_id;sensor_type;location;lat;lon;timestamp;pressure;altitude;pressure_sealevel;temperature;humidity
26823;BME280;14852;51.910;8.878;2023-04-02T00:01:34;99196.66;;;7.76;65.53
26823;BME280;14852;51.910;8.878;2023-04-02T00:04:05;99196.16;;;7.70;65.76
26823;BME280;14852;51.910;8.878;2023-04-02T00:06:36;99198.72;;;7.70;65.53
26823;BME280;14852;51.910;8.878;2023-04-02T00:11:42;99216.00;;;7.69;65.68
26823;BME280;14852;51.910;8.878;2023-04-02T00:14:31;99217.13;;;7.63;65.78
26823;BME280;14852;51.910;8.878;2023-04-02T00:17:04;99218.19;;;7.59;65.40
26823;BME280;14852;51.910;8.878;2023-04-02T00:19:58;99224.41;;;7.55;65.56
26823;BME280;14852;51.910;8.878;2023-04-02T00:22:30;99230.63;;;7.51;65.83
26823;BME280;14852;51.910;8.878;2023-04-02T00:25:04;99237.47;;;7.52;65.76
26823;BME280;14852;51.910;8.878;2023-04-02T00:27:32;99233.31;;;7.50;65.58
26823;BME280;14852;51.910;8.878;2023-04-02T00:29:58;99240.00;;;7.54;65.64
26823;BME280;14852;51.910;8.878;2023-04-02T00:32:27;99244.97;;;7.58;65.81
26823;BME280;14852;51.910;8.878;2023-04-02T00:34:55;99251.88;;;7.58;65.38
26823;BME280;14852;51.910;8.878;2023-04-02T00:37:24;99254.66;;;7.53;65.56
26823;BME280;14852;51.910;8.878;2023-04-02T00:40:05;99255.50;;;7.54;65.37
26823;BME280;14852;51.910;8.878;2023-04-02T00:42:34;99263.25;;;7.54;65.39
26823;BME280;14852;51.910;8.878;2023-04-02T00:45:04;99263.97;;;7.57;65.55
26823;BME280;14852;51.910;8.878;2023-04-02T00:47:34;99269.97;;;7.58;65.50
26823;BME280;14852;51.910;8.878;2023-04-02T00:52:37;99272.63;;;7.56;65.28
26823;BME280;14852;51.910;8.878;2023-04-02T00:55:20;99283.88;;;7.55;65.31
26823;BME280;14852;51.910;8.878;2023-04-02T00:57:49;99282.19;;;7.54;65.24
26823;BME280;14852;51.910;8.878;2023-04-02T01:00:30;99289.06;;;7.55;65.46
26823;BME280;14852;51.910;8.878;2023-04-02T01:06:03;99295.44;;;7.48;65.32
26823;BME280;14852;51.910;8.878;2023-04-02T01:08:54;99304.22;;;7.44;65.43
26823;BME280;14852;51.910;8.878;2023-04-02T01:11:40;99302.56;;;7.43;65.27
26823;BME280;14852;51.910;8.878;2023-04-02T01:14:48;99311.44;;;7.38;65.35
26823;BME280;14852;51.910;8.878;2023-04-02T01:21:06;99316.28;;;7.26;65.24
26823;BME280;14852;51.910;8.878;2023-04-02T01:23:49;99333.78;;;7.20;65.18
26823;BME280;14852;51.910;8.878;2023-04-02T01:26:54;99335.75;;;7.15;65.38
26823;BME280;14852;51.910;8.878;2023-04-02T01:29:37;99334.97;;;7.13;65.23
26823;BME280;14852;51.910;8.878;2023-04-02T01:32:14;99351.63;;;7.06;65.17
26823;BME280;14852;51.910;8.878;2023-04-02T01:34:42;99357.16;;;6.98;65.47
26823;BME280;14852;51.910;8.878;2023-04-02T01:37:41;99357.34;;;6.94;65.61
26823;BME280;14852;51.910;8.878;2023-04-02T01:40:27;99368.78;;;6.88;65.69
26823;BME280;14852;51.910;8.878;2023-04-02T01:43:32;99378.28;;;6.87;65.36
26823;BME280;14852;51.910;8.878;2023-04-02T01:46:22;99390.47;;;6.84;65.32
26823;BME280;14852;51.910;8.878;2023-04-02T01:48:48;99404.56;;;6.77;65.24
26823;BME280;14852;51.910;8.878;2023-04-02T01:51:27;99395.38;;;6.70;65.37
26823;BME280;14852;51.910;8.878;2023-04-02T01:53:54;99403.69;;;6.58;65.20
26823;BME280;14852;51.910;8.878;2023-04-02T01:56:21;99408.19;;;6.52;65.44
26823;BME280;14852;51.910;8.878;2023-04-02T01:58:47;99409.13;;;6.50;65.57
26823;BME280;14852;51.910;8.878;2023-04-02T02:01:22;99413.41;;;6.51;65.12
26823;BME280;14852;51.910;8.878;2023-04-02T02:03:51;99417.72;;;6.50;65.45
26823;BME280;14852;51.910;8.878;2023-04-02T02:06:18;99422.03;;;6.50;65.40
26823;BME280;14852;51.910;8.878;2023-04-02T02:08:57;99420.34;;;6.49;65.34
26823;BME280;14852;51.910;8.878;2023-04-02T02:11:29;99425.78;;;6.43;65.24
26823;BME280;14852;51.910;8.878;2023-04-02T02:14:14;99434.59;;;6.37;65.41
26823;BME280;14852;51.910;8.878;2023-04-02T02:16:41;99432.91;;;6.36;65.29
26823;BME280;14852;51.910;8.878;2023-04-02T02:19:31;99445.06;;;6.34;65.27
26823;BME280;14852;51.910;8.878;2023-04-02T02:22:26;99448.59;;;6.32;65.42
26823;BME280;14852;51.910;8.878;2023-04-02T02:24:54;99456.47;;;6.29;65.29
26823;BME280;14852;51.910;8.878;2023-04-02T02:29:59;99460.03;;;6.25;65.55
26823;BME280;14852;51.910;8.878;2023-04-02T02:32:32;99465.22;;;6.25;65.40
26823;BME280;14852;51.910;8.878;2023-04-02T02:35:10;99475.47;;;6.26;65.34
26823;BME280;14852;51.910;8.878;2023-04-02T02:37:45;99486.63;;;6.27;65.38
26823;BME280;14852;51.910;8.878;2023-04-02T02:40:26;99488.69;;;6.18;65.57
26823;BME280;14852;51.910;8.878;2023-04-02T02:43:00;99495.78;;;6.12;65.59
26823;BME280;14852;51.910;8.878;2023-04-02T02:45:34;99513.19;;;6.07;65.74
26823;BME280;14852;51.910;8.878;2023-04-02T02:48:04;99501.22;;;6.06;65.55
26823;BME280;14852;51.910;8.878;2023-04-02T02:50:34;99504.50;;;6.09;65.75
26823;BME280;14852;51.910;8.878;2023-04-02T02:53:14;99516.53;;;6.10;65.42
26823;BME280;14852;51.910;8.878;2023-04-02T02:55:41;99512.41;;;6.05;65.32
26823;BME280;14852;51.910;8.878;2023-04-02T02:58:22;99507.38;;;6.02;65.56
26823;BME280;14852;51.910;8.878;2023-04-02T03:00:59;99521.34;;;5.96;65.75
26823;BME280;14852;51.910;8.878;2023-04-02T03:03:29;99516.34;;;5.92;65.50
26823;BME280;14852;51.910;8.878;2023-04-02T03:06:06;99521.56;;;5.90;65.52
26823;BME280;14852;51.910;8.878;2023-04-02T03:15:20;99535.28;;;5.91;65.50
26823;BME280;14852;51.910;8.878;2023-04-02T03:18:04;99546.44;;;5.91;65.59
26823;BME280;14852;51.910;8.878;2023-04-02T03:20:52;99553.34;;;5.91;65.41
26823;BME280;14852;51.910;8.878;2023-04-02T03:23:29;99561.06;;;5.91;65.29
26823;BME280;14852;51.910;8.878;2023-04-02T03:26:33;99558.59;;;5.88;65.27
26823;BME280;14852;51.910;8.878;2023-04-02T03:32:02;99575.16;;;5.80;65.06
26823;BME280;14852;51.910;8.878;2023-04-02T03:34:43;99577.84;;;5.77;65.26
26823;BME280;14852;51.910;8.878;2023-04-02T03:39:59;99589.22;;;5.72;65.18
26823;BME280;14852;51.910;8.878;2023-04-02T03:42:35;99605.59;;;5.71;64.83
26823;BME280;14852;51.910;8.878;2023-04-02T03:45:15;99597.81;;;5.72;65.19
26823;BME280;14852;51.910;8.878;2023-04-02T03:48:17;99601.19;;;5.74;64.96
26823;BME280;14852;51.910;8.878;2023-04-02T03:51:04;99613.38;;;5.69;64.67
26823;BME280;14852;51.910;8.878;2023-04-02T03:53:32;99624.75;;;5.64;64.95
26823;BME280;14852;51.910;8.878;2023-04-02T03:56:00;99632.44;;;5.65;64.80
26823;BME280;14852;51.910;8.878;2023-04-02T03:58:38;99645.19;;;5.68;64.77
26823;BME280;14852;51.910;8.878;2023-04-02T04:01:32;99645.91;;;5.73;65.08
26823;BME280;14852;51.910;8.878;2023-04-02T04:04:12;99650.13;;;5.76;64.64
26823;BME280;14852;51.910;8.878;2023-04-02T04:06:42;99650.97;;;5.76;64.53
26823;BME280;14852;51.910;8.878;2023-04-02T04:11:51;99671.50;;;5.78;64.31
26823;BME280;14852;51.910;8.878;2023-04-02T04:14:40;99675.94;;;5.74;64.75
26823;BME280;14852;51.910;8.878;2023-04-02T04:19:50;99676.88;;;5.72;64.46
26823;BME280;14852;51.910;8.878;2023-04-02T04:22:26;99686.22;;;5.76;64.65
26823;BME280;14852;51.910;8.878;2023-04-02T04:25:01;99686.22;;;5.76;64.49
26823;BME280;14852;51.910;8.878;2023-04-02T04:27:47;99693.72;;;5.82;64.50
26823;BME280;14852;51.910;8.878;2023-04-02T04:30:25;99698.09;;;5.80;64.34
26823;BME280;14852;51.910;8.878;2023-04-02T04:33:02;99700.88;;;5.74;64.24
26823;BME280;14852;51.910;8.878;2023-04-02T04:35:54;99707.06;;;5.68;64.34
26823;BME280;14852;51.910;8.878;2023-04-02T04:38:34;99718.44;;;5.63;64.19
26823;BME280;14852;51.910;8.878;2023-04-02T04:41:15;99721.06;;;5.61;64.30
26823;BME280;14852;51.910;8.878;2023-04-02T04:44:06;99738.25;;;5.61;64.21
26823;BME280;14852;51.910;8.878;2023-04-02T04:47:01;99735.19;;;5.50;64.38
26823;BME280;14852;51.910;8.878;2023-04-02T04:52:23;99752.63;;;5.41;64.48
26823;BME280;14852;51.910;8.878;2023-04-02T04:54:51;99761.28;;;5.39;64.38
26823;BME280;14852;51.910;8.878;2023-04-02T04:57:33;99764.72;;;5.39;64.16
26823;BME280;14852;51.910;8.878;2023-04-02T05:00:18;99773.38;;;5.37;64.44
26823;BME280;14852;51.910;8.878;2023-04-02T05:03:12;99768.28;;;5.35;64.53
26823;BME280;14852;51.910;8.878;2023-04-02T05:05:42;99778.56;;;5.35;64.22
26823;BME280;14852;51.910;8.878;2023-04-02T05:08:21;99780.13;;;5.41;64.31
26823;BME280;14852;51.910;8.878;2023-04-02T05:11:02;99779.28;;;5.40;64.11
26823;BME280;14852;51.910;8.878;2023-04-02T05:13:39;99794.59;;;5.45;64.12
26823;BME280;14852;51.910;8.878;2023-04-02T05:16:44;99796.16;;;5.51;63.81
26823;BME280;14852;51.910;8.878;2023-04-02T05:19:42;99805.56;;;5.52;63.81
26823;BME280;14852;51.910;8.878;2023-04-02T05:23:01;99805.78;;;5.44;64.01
26823;BME280;14852;51.910;8.878;2023-04-02T05:25:30;99818.03;;;5.37;63.70
26823;BME280;14852;51.910;8.878;2023-04-02T05:28:20;99824.78;;;5.41;64.03
26823;BME280;14852;51.910;8.878;2023-04-02T05:30:54;99828.88;;;5.47;64.00
26823;BME280;14852;51.910;8.878;2023-04-02T05:33:25;99844.31;;;5.49;63.57
26823;BME280;14852;51.910;8.878;2023-04-02T05:36:04;99841.72;;;5.49;63.79
26823;BME280;14852;51.910;8.878;2023-04-02T05:38:44;99844.22;;;5.52;63.80
26823;BME280;14852;51.910;8.878;2023-04-02T05:41:32;99851.84;;;5.55;63.57
26823;BME280;14852;51.910;8.878;2023-04-02T05:44:23;99853.50;;;5.57;63.60
26823;BME280;14852;51.910;8.878;2023-04-02T05:47:17;99858.69;;;5.56;63.69
26823;BME280;14852;51.910;8.878;2023-04-02T05:49:49;99859.66;;;5.53;63.47
26823;BME280;14852;51.910;8.878;2023-04-02T05:52:28;99860.63;;;5.49;63.38
26823;BME280;14852;51.910;8.878;2023-04-02T05:57:50;99870.66;;;5.58;63.48
26823;BME280;14852;51.910;8.878;2023-04-02T06:00:41;99882.56;;;5.62;63.31
26823;BME280;14852;51.910;8.878;2023-04-02T06:04:02;99890.41;;;5.58;63.33
26823;BME280;14852;51.910;8.878;2023-04-02T06:09:33;99891.34;;;5.55;63.32
26823;BME280;14852;51.910;8.878;2023-04-02T06:14:40;99911.06;;;5.56;63.06
26823;BME280;14852;51.910;8.878;2023-04-02T06:17:12;99909.31;;;5.58;63.22
26823;BME280;14852;51.910;8.878;2023-04-02T06:19:39;99921.44;;;5.55;62.88
26823;BME280;14852;51.910;8.878;2023-04-02T06:22:36;99938.53;;;5.57;63.10
26823;BME280;14852;51.910;8.878;2023-04-02T06:25:23;99939.44;;;5.56;62.93
26823;BME280;14852;51.910;8.878;2023-04-02T06:27:53;99938.59;;;5.56;62.63
26823;BME280;14852;51.910;8.878;2023-04-02T06:30:31;99947.94;;;5.60;62.65
26823;BME280;14852;51.910;8.878;2023-04-02T06:32:58;99953.72;;;5.66;62.40
26823;BME280;14852;51.910;8.878;2023-04-02T06:35:26;99955.34;;;5.70;62.67
26823;BME280;14852;51.910;8.878;2023-04-02T06:38:01;99958.66;;;5.75;62.55
26823;BME280;14852;51.910;8.878;2023-04-02T06:43:40;99962.72;;;5.82;62.43
26823;BME280;14852;51.910;8.878;2023-04-02T06:46:48;99973.78;;;5.86;62.28
26823;BME280;14852;51.910;8.878;2023-04-02T06:49:22;99973.66;;;5.91;62.33
26823;BME280;14852;51.910;8.878;2023-04-02T06:51:53;99979.56;;;5.96;61.91
26823;BME280;14852;51.910;8.878;2023-04-02T06:54:20;99981.03;;;6.03;62.13
26823;BME280;14852;51.910;8.878;2023-04-02T06:56:53;99994.47;;;6.14;61.84
26823;BME280;14852;51.910;8.878;2023-04-02T06:59:26;99990.25;;;6.11;61.46
26823;BME280;14852;51.910;8.878;2023-04-02T07:01:59;100002.25;;;6.12;61.45
26823;BME280;14852;51.910;8.878;2023-04-02T07:04:28;100005.75;;;6.11;61.51
26823;BME280;14852;51.910;8.878;2023-04-02T07:06:54;100017.63;;;6.15;61.60
26823;BME280;14852;51.910;8.878;2023-04-02T07:09:23;100021.78;;;6.21;61.28
26823;BME280;14852;51.910;8.878;2023-04-02T07:11:54;100027.72;;;6.23;61.17
26823;BME280;14852;51.910;8.878;2023-04-02T07:14:19;100027.63;;;6.26;61.20
26823;BME280;14852;51.910;8.878;2023-04-02T07:16:46;100030.16;;;6.28;60.99
26823;BME280;14852;51.910;8.878;2023-04-02T07:19:21;100051.53;;;6.33;60.89
26823;BME280;14852;51.910;8.878;2023-04-02T07:21:51;100041.38;;;6.27;60.81
26823;BME280;14852;51.910;8.878;2023-04-02T07:24:18;100063.91;;;6.22;60.54
26823;BME280;14852;51.910;8.878;2023-04-02T07:26:44;100058.78;;;6.20;60.53
26823;BME280;14852;51.910;8.878;2023-04-02T07:29:15;100064.56;;;6.28;60.55
26823;BME280;14852;51.910;8.878;2023-04-02T07:31:42;100070.53;;;6.30;60.33
26823;BME280;14852;51.910;8.878;2023-04-02T07:34:09;100074.91;;;6.27;60.29
26823;BME280;14852;51.910;8.878;2023-04-02T07:36:35;100084.34;;;6.28;60.32
26823;BME280;14852;51.910;8.878;2023-04-02T07:39:02;100082.38;;;6.36;60.36
26823;BME280;14852;51.910;8.878;2023-04-02T07:41:28;100095.13;;;6.42;60.26
26823;BME280;14852;51.910;8.878;2023-04-02T07:43:54;100099.19;;;6.49;60.14
26823;BME280;14852;51.910;8.878;2023-04-02T07:46:19;100106.66;;;6.58;59.88
26823;BME280;14852;51.910;8.878;2023-04-02T07:48:46;100102.97;;;6.67;59.79
26823;BME280;14852;51.910;8.878;2023-04-02T07:51:21;100113.47;;;6.61;59.38
26823;BME280;14852;51.910;8.878;2023-04-02T07:53:48;100122.34;;;6.52;59.79
26823;BME280;14852;51.910;8.878;2023-04-02T07:56:18;100133.50;;;6.52;59.55
26823;BME280;14852;51.910;8.878;2023-04-02T07:58:44;100135.22;;;6.53;59.67
26823;BME280;14852;51.910;8.878;2023-04-02T08:01:25;100129.75;;;6.63;59.64
26823;BME280;14852;51.910;8.878;2023-04-02T08:03:53;100134.84;;;6.66;58.96
26823;BME280;14852;51.910;8.878;2023-04-02T08:06:19;100137.72;;;6.57;59.09
26823;BME280;14852;51.910;8.878;2023-04-02T08:08:45;100141.97;;;6.58;59.25
26823;BME280;14852;51.910;8.878;2023-04-02T08:11:11;100151.31;;;6.62;59.44
26823;BME280;14852;51.910;8.878;2023-04-02T08:13:38;100148.03;;;6.57;59.26
26823;BME280;14852;51.910;8.878;2023-04-02T08:16:05;100160.66;;;6.66;59.52
26823;BME280;14852;51.910;8.878;2023-04-02T08:18:31;100163.25;;;6.66;59.43
26823;BME280;14852;51.910;8.878;2023-04-02T08:20:58;100171.78;;;6.68;59.32
26823;BME280;14852;51.910;8.878;2023-04-02T08:23:25;100182.13;;;6.68;59.10
26823;BME280;14852;51.910;8.878;2023-04-02T08:25:52;100180.56;;;6.62;58.69
26823;BME280;14852;51.910;8.878;2023-04-02T08:28:19;100180.88;;;6.51;58.82
26823;BME280;14852;51.910;8.878;2023-04-02T08:30:46;100177.34;;;6.54;58.62
26823;BME280;14852;51.910;8.878;2023-04-02T08:33:16;100182.34;;;6.60;58.73
26823;BME280;14852;51.910;8.878;2023-04-02T08:35:45;100192.63;;;6.62;58.50
26823;BME280;14852;51.910;8.878;2023-04-02T08:38:14;100191.56;;;6.69;58.59
26823;BME280;14852;51.910;8.878;2023-04-02T08:40:44;100192.78;;;6.85;58.36
26823;BME280;14852;51.910;8.878;2023-04-02T08:43:55;100192.97;;;7.07;57.89
26823;BME280;14852;51.910;8.878;2023-04-02T08:46:36;100203.97;;;7.13;57.53
26823;BME280;14852;51.910;8.878;2023-04-02T08:49:14;100220.78;;;6.99;57.23
26823;BME280;14852;51.910;8.878;2023-04-02T08:51:41;100212.75;;;6.80;57.50
26823;BME280;14852;51.910;8.878;2023-04-02T08:54:27;100221.50;;;6.74;57.87
26823;BME280;14852;51.910;8.878;2023-04-02T08:59:48;100238.03;;;6.69;58.14
26823;BME280;14852;51.910;8.878;2023-04-02T09:05:04;100250.22;;;6.64;57.67
26823;BME280;14852;51.910;8.878;2023-04-02T09:07:31;100254.47;;;6.66;57.98
26823;BME280;14852;51.910;8.878;2023-04-02T09:09:58;100257.09;;;6.65;57.50
26823;BME280;14852;51.910;8.878;2023-04-02T09:12:29;100257.91;;;6.67;57.48
26823;BME280;14852;51.910;8.878;2023-04-02T09:15:27;100268.84;;;6.75;57.29
26823;BME280;14852;51.910;8.878;2023-04-02T09:18:12;100262.03;;;6.72;57.20
26823;BME280;14852;51.910;8.878;2023-04-02T09:20:38;100262.03;;;6.72;57.16
26823;BME280;14852;51.910;8.878;2023-04-02T09:23:05;100267.72;;;6.83;57.47
26823;BME280;14852;51.910;8.878;2023-04-02T09:25:33;100259.53;;;6.99;57.04
26823;BME280;14852;51.910;8.878;2023-04-02T09:28:04;100273.03;;;7.08;57.27
26823;BME280;14852;51.910;8.878;2023-04-02T09:31:30;100273.78;;;7.12;57.09
26823;BME280;14852;51.910;8.878;2023-04-02T09:33:58;100279.56;;;7.20;56.70
26823;BME280;14852;51.910;8.878;2023-04-02T09:36:33;100285.50;;;7.23;56.88
26823;BME280;14852;51.910;8.878;2023-04-02T09:39:19;100286.31;;;7.25;56.54
26823;BME280;14852;51.910;8.878;2023-04-02T09:41:46;100295.53;;;7.33;56.77
26823;BME280;14852;51.910;8.878;2023-04-02T09:44:25;100294.56;;;7.37;56.28
26823;BME280;14852;51.910;8.878;2023-04-02T09:47:05;100295.34;;;7.39;56.17
26823;BME280;14852;51.910;8.878;2023-04-02T09:49:47;100297.75;;;7.45;55.81
26823;BME280;14852;51.910;8.878;2023-04-02T09:52:28;100308.81;;;7.50;55.84
26823;BME280;14852;51.910;8.878;2023-04-02T09:57:39;100322.31;;;7.59;55.62
26823;BME280;14852;51.910;8.878;2023-04-02T10:00:18;100330.69;;;7.66;55.50
26823;BME280;14852;51.910;8.878;2023-04-02T10:02:46;100322.00;;;7.69;54.99
26823;BME280;14852;51.910;8.878;2023-04-02T10:05:23;100335.19;;;7.61;54.13
26823;BME280;14852;51.910;8.878;2023-04-02T10:07:52;100334.19;;;7.65;54.61
26823;BME280;14852;51.910;8.878;2023-04-02T10:10:40;100340.88;;;7.72;54.15
26823;BME280;14852;51.910;8.878;2023-04-02T10:16:41;100357.06;;;7.77;54.01
26823;BME280;14852;51.910;8.878;2023-04-02T10:19:41;100348.28;;;7.83;53.33
26823;BME280;14852;51.910;8.878;2023-04-02T10:22:19;100357.94;;;7.78;53.16
26823;BME280;14852;51.910;8.878;2023-04-02T10:24:47;100372.41;;;7.83;53.52
26823;BME280;14852;51.910;8.878;2023-04-02T10:27:40;100361.72;;;7.94;53.53
26823;BME280;14852;51.910;8.878;2023-04-02T10:30:57;100367.03;;;7.89;52.45
26823;BME280;14852;51.910;8.878;2023-04-02T10:33:31;100372.47;;;7.82;52.71
26823;BME280;14852;51.910;8.878;2023-04-02T10:36:10;100361.22;;;7.83;52.95
26823;BME280;14852;51.910;8.878;2023-04-02T10:39:00;100372.16;;;7.91;52.77
26823;BME280;14852;51.910;8.878;2023-04-02T10:50:24;100385.72;;;8.25;52.90
26823;BME280;14852;51.910;8.878;2023-04-02T10:53:16;100382.81;;;8.36;52.42
26823;BME280;14852;51.910;8.878;2023-04-02T10:55:51;100389.72;;;8.35;52.27
26823;BME280;14852;51.910;8.878;2023-04-02T10:58:27;100393.78;;;8.43;52.49
26823;BME280;14852;51.910;8.878;2023-04-02T11:01:00;100394.53;;;8.46;52.41
26823;BME280;14852;51.910;8.878;2023-04-02T11:03:59;100398.47;;;8.58;52.48
26823;BME280;14852;51.910;8.878;2023-04-02T11:06:53;100412.13;;;8.63;52.41
26823;BME280;14852;51.910;8.878;2023-04-02T11:09:23;100411.28;;;8.62;52.45
26823;BME280;14852;51.910;8.878;2023-04-02T11:11:54;100407.31;;;8.52;51.52
26823;BME280;14852;51.910;8.878;2023-04-02T11:14:28;100412.53;;;8.51;52.07
26823;BME280;14852;51.910;8.878;2023-04-02T11:16:55;100419.09;;;8.61;52.11
26823;BME280;14852;51.910;8.878;2023-04-02T11:19:31;100422.53;;;8.61;52.01
26823;BME280;14852;51.910;8.878;2023-04-02T11:22:21;100418.88;;;8.67;51.58
26823;BME280;14852;51.910;8.878;2023-04-02T11:24:52;100425.28;;;8.82;52.06
26823;BME280;14852;51.910;8.878;2023-04-02T11:27:30;100442.53;;;9.07;51.44
26823;BME280;14852;51.910;8.878;2023-04-02T11:30:19;100439.94;;;9.07;51.41
26823;BME280;14852;51.910;8.878;2023-04-02T11:32:47;100448.66;;;9.05;51.04
26823;BME280;14852;51.910;8.878;2023-04-02T11:37:58;100448.84;;;9.24;51.31
26823;BME280;14852;51.910;8.878;2023-04-02T11:40:45;100458.84;;;9.34;51.31
26823;BME280;14852;51.910;8.878;2023-04-02T11:43:47;100462.00;;;9.42;51.53
26823;BME280;14852;51.910;8.878;2023-04-02T11:48:44;100454.94;;;9.46;51.90
26823;BME280;14852;51.910;8.878;2023-04-02T11:53:46;100473.28;;;9.65;50.33
26823;BME280;14852;51.910;8.878;2023-04-02T11:59:38;100467.22;;;9.88;50.74
26823;BME280;14852;51.910;8.878;2023-04-02T12:02:40;100468.56;;;9.98;50.88
26823;BME280;14852;51.910;8.878;2023-04-02T12:05:28;100469.31;;;10.01;50.63
26823;BME280;14852;51.910;8.878;2023-04-02T12:08:27;100464.66;;;10.09;50.84
26823;BME280;14852;51.910;8.878;2023-04-02T12:11:01;100480.06;;;10.14;50.62
26823;BME280;14852;51.910;8.878;2023-04-02T12:16:12;100476.97;;;9.81;50.96
26823;BME280;14852;51.910;8.878;2023-04-02T12:18:47;100504.41;;;9.88;51.09
26823;BME280;14852;51.910;8.878;2023-04-02T12:21:21;100487.09;;;9.89;50.67
26823;BME280;14852;51.910;8.878;2023-04-02T12:23:52;100486.91;;;9.93;50.42
26823;BME280;14852;51.910;8.878;2023-04-02T12:26:28;100497.47;;;9.89;50.35
26823;BME280;14852;51.910;8.878;2023-04-02T12:29:25;100503.28;;;9.95;50.34
26823;BME280;14852;51.910;8.878;2023-04-02T12:31:53;100502.19;;;10.01;50.29
26823;BME280;14852;51.910;8.878;2023-04-02T12:34:22;100505.75;;;9.98;50.15
26823;BME280;14852;51.910;8.878;2023-04-02T12:39:17;100516.94;;;10.00;50.44
26823;BME280;14852;51.910;8.878;2023-04-02T12:41:43;100523.81;;;10.01;50.25
26823;BME280;14852;51.910;8.878;2023-04-02T12:44:15;100521.53;;;10.15;49.97
26823;BME280;14852;51.910;8.878;2023-04-02T12:46:43;100526.84;;;10.12;49.30
26823;BME280;14852;51.910;8.878;2023-04-02T12:49:38;100520.59;;;10.18;49.59
26823;BME280;14852;51.910;8.878;2023-04-02T12:52:09;100532.47;;;10.02;49.39
26823;BME280;14852;51.910;8.878;2023-04-02T12:54:44;100539.88;;;10.11;49.48
26823;BME280;14852;51.910;8.878;2023-04-02T12:57:40;100528.16;;;10.24;49.16
26823;BME280;14852;51.910;8.878;2023-04-02T13:05:54;100551.25;;;10.53;48.97
26823;BME280;14852;51.910;8.878;2023-04-02T13:08:40;100554.69;;;10.54;48.65
26823;BME280;14852;51.910;8.878;2023-04-02T13:11:06;100558.13;;;10.55;48.19
26823;BME280;14852;51.910;8.878;2023-04-02T13:13:36;100567.63;;;10.56;48.51
26823;BME280;14852;51.910;8.878;2023-04-02T13:18:41;100553.88;;;10.74;48.09
26823;BME280;14852;51.910;8.878;2023-04-02T13:23:45;100548.69;;;10.74;47.66
26823;BME280;14852;51.910;8.878;2023-04-02T13:26:19;100544.00;;;10.83;48.15
26823;BME280;14852;51.910;8.878;2023-04-02T13:29:16;100545.53;;;10.87;47.86
26823;BME280;14852;51.910;8.878;2023-04-02T13:31:43;100547.03;;;10.73;47.47
26823;BME280;14852;51.910;8.878;2023-04-02T13:34:08;100547.50;;;10.61;47.36
26823;BME280;14852;51.910;8.878;2023-04-02T13:36:34;100559.94;;;10.52;46.96
26823;BME280;14852;51.910;8.878;2023-04-02T13:39:02;100553.47;;;10.41;46.64
26823;BME280;14852;51.910;8.878;2023-04-02T13:41:30;100555.78;;;10.27;47.09
26823;BME280;14852;51.910;8.878;2023-04-02T13:43:58;100555.03;;;10.23;47.33
26823;BME280;14852;51.910;8.878;2023-04-02T13:46:29;100564.63;;;10.21;47.58
26823;BME280;14852;51.910;8.878;2023-04-02T13:48:56;100562.94;;;10.20;47.31
26823;BME280;14852;51.910;8.878;2023-04-02T13:51:37;100553.44;;;10.19;47.57
26823;BME280;14852;51.910;8.878;2023-04-02T13:54:08;100565.31;;;10.26;47.47
26823;BME280;14852;51.910;8.878;2023-04-02T13:56:38;100556.06;;;10.19;46.42
26823;BME280;14852;51.910;8.878;2023-04-02T13:59:04;100572.41;;;9.98;46.67
26823;BME280;14852;51.910;8.878;2023-04-02T14:01:30;100572.19;;;9.80;47.15
26823;BME280;14852;51.910;8.878;2023-04-02T14:03:56;100569.25;;;9.66;47.46
26823;BME280;14852;51.910;8.878;2023-04-02T14:09:42;100567.75;;;9.59;47.58
26823;BME280;14852;51.910;8.878;2023-04-02T14:15:21;100578.84;;;9.88;47.51
26823;BME280;14852;51.910;8.878;2023-04-02T14:18:15;100571.25;;;10.05;47.95
26823;BME280;14852;51.910;8.878;2023-04-02T14:27:40;100591.56;;;9.70;46.28
26823;BME280;14852;51.910;8.878;2023-04-02T14:33:49;100588.13;;;9.70;46.27
26823;BME280;14852;51.910;8.878;2023-04-02T14:36:30;100588.88;;;9.73;45.97
26823;BME280;14852;51.910;8.878;2023-04-02T14:41:54;100594.88;;;9.99;46.40
26823;BME280;14852;51.910;8.878;2023-04-02T14:44:23;100606.97;;;10.00;46.75
26823;BME280;14852;51.910;8.878;2023-04-02T14:47:07;100601.75;;;10.00;47.02
26823;BME280;14852;51.910;8.878;2023-04-02T14:49:40;100597.91;;;10.10;46.82
26823;BME280;14852;51.910;8.878;2023-04-02T14:52:17;100596.91;;;10.14;47.06
26823;BME280;14852;51.910;8.878;2023-04-02T14:58:09;100612.28;;;10.20;46.33
26823;BME280;14852;51.910;8.878;2023-04-02T15:00:57;100609.63;;;10.22;46.91
26823;BME280;14852;51.910;8.878;2023-04-02T15:03:32;100606.69;;;10.31;46.96
26823;BME280;14852;51.910;8.878;2023-04-02T15:06:14;100600.91;;;10.46;46.58
26823;BME280;14852;51.910;8.878;2023-04-02T15:09:14;100607.19;;;10.62;46.50
26823;BME280;14852;51.910;8.878;2023-04-02T15:12:16;100604.22;;;10.73;46.05
26823;BME280;14852;51.910;8.878;2023-04-02T15:14:47;100603.78;;;10.83;46.29
26823;BME280;14852;51.910;8.878;2023-04-02T15:17:16;100614.88;;;10.87;45.62
26823;BME280;14852;51.910;8.878;2023-04-02T15:19:42;100617.75;;;10.81;45.87
26823;BME280;14852;51.910;8.878;2023-04-02T15:30:38;100604.84;;;10.78;45.51
26823;BME280;14852;51.910;8.878;2023-04-02T15:36:31;100613.59;;;10.53;44.76
26823;BME280;14852;51.910;8.878;2023-04-02T15:39:34;100607.41;;;10.58;45.49
26823;BME280;14852;51.910;8.878;2023-04-02T15:42:16;100611.16;;;10.72;45.38
26823;BME280;14852;51.910;8.878;2023-04-02T15:50:43;100625.84;;;10.95;44.95
26823;BME280;14852;51.910;8.878;2023-04-02T15:53:43;100630.31;;;10.92;44.88
26823;BME280;14852;51.910;8.878;2023-04-02T16:11:26;100644.94;;;10.72;44.42
26823;BME280;14852;51.910;8.878;2023-04-02T16:14:26;100657.25;;;10.67;44.15
26823;BME280;14852;51.910;8.878;2023-04-02T16:17:03;100656.66;;;10.61;44.87
26823;BME280;14852;51.910;8.878;2023-04-02T16:19:48;100657.41;;;10.63;44.85
26823;BME280;14852;51.910;8.878;2023-04-02T16:22:26;100667.91;;;10.61;44.89
26823;BME280;14852;51.910;8.878;2023-04-02T16:25:13;100660.88;;;10.63;45.26